Long Pond Township, Maine
Current Conditions -  °F | °C
As of 1:00 PM on Friday 19 Dec 2014 (Local Time) from CYSC Reporting Station
Overcast Overcast  
Wind Chill: 11°   Ceiling: 1300
Heat Index: 21°   Visibility: 9mi
Dew Point: 18°   Wind: 9mph
Humidity: 86%   Direction: 300°WNW
Pressure: 30.01"   Gusts: NA
Location:  45.7142°N, 70.304°W
Report Text: CYSC 191800Z AUTO 30008KT 9SM OVC013 M06/M08 A3001 RMK SLP176
Loading
Personal Weather Stations






























Interactive Weather Map New forecast layout! Learn more

10-Day Weather Forecast

Advertisements
Track Severe Weather on mobile